sensor_id;sensor_type;location;lat;lon;timestamp;P1;durP1;ratioP1;P2;durP2;ratioP2
51248;SDS011;39642;47.556;18.728;2023-04-03T00:00:21;9.05;;;2.87;;
51248;SDS011;39642;47.556;18.728;2023-04-03T00:02:46;8.57;;;3.00;;
51248;SDS011;39642;47.556;18.728;2023-04-03T00:05:12;7.85;;;2.85;;
51248;SDS011;39642;47.556;18.728;2023-04-03T00:07:38;9.05;;;3.30;;
51248;SDS011;39642;47.556;18.728;2023-04-03T00:10:04;8.40;;;3.08;;
51248;SDS011;39642;47.556;18.728;2023-04-03T00:12:30;8.57;;;3.22;;
51248;SDS011;39642;47.556;18.728;2023-04-03T00:14:56;8.15;;;2.97;;
51248;SDS011;39642;47.556;18.728;2023-04-03T00:17:22;9.57;;;3.00;;
51248;SDS011;39642;47.556;18.728;2023-04-03T00:19:48;7.95;;;2.92;;
51248;SDS011;39642;47.556;18.728;2023-04-03T00:22:14;8.60;;;3.10;;
51248;SDS011;39642;47.556;18.728;2023-04-03T00:24:39;8.98;;;3.22;;
51248;SDS011;39642;47.556;18.728;2023-04-03T00:27:05;8.63;;;3.00;;
51248;SDS011;39642;47.556;18.728;2023-04-03T00:29:31;8.73;;;3.03;;
51248;SDS011;39642;47.556;18.728;2023-04-03T00:31:57;8.00;;;2.90;;
51248;SDS011;39642;47.556;18.728;2023-04-03T00:34:23;8.65;;;3.05;;
51248;SDS011;39642;47.556;18.728;2023-04-03T00:36:49;8.48;;;2.87;;
51248;SDS011;39642;47.556;18.728;2023-04-03T00:39:15;8.40;;;2.90;;
51248;SDS011;39642;47.556;18.728;2023-04-03T00:41:41;7.93;;;2.87;;
51248;SDS011;39642;47.556;18.728;2023-04-03T00:47:05;9.10;;;3.00;;
51248;SDS011;39642;47.556;18.728;2023-04-03T00:49:34;8.07;;;3.00;;
51248;SDS011;39642;47.556;18.728;2023-04-03T00:52:02;8.95;;;3.00;;
51248;SDS011;39642;47.556;18.728;2023-04-03T00:54:29;7.87;;;2.67;;
51248;SDS011;39642;47.556;18.728;2023-04-03T00:56:55;8.80;;;3.05;;
51248;SDS011;39642;47.556;18.728;2023-04-03T00:59:24;8.07;;;2.83;;
51248;SDS011;39642;47.556;18.728;2023-04-03T01:01:55;8.98;;;3.05;;
51248;SDS011;39642;47.556;18.728;2023-04-03T01:04:29;8.45;;;2.80;;
51248;SDS011;39642;47.556;18.728;2023-04-03T01:06:57;8.60;;;2.87;;
51248;SDS011;39642;47.556;18.728;2023-04-03T01:09:31;8.32;;;2.85;;
51248;SDS011;39642;47.556;18.728;2023-04-03T01:12:14;8.65;;;2.90;;
51248;SDS011;39642;47.556;18.728;2023-04-03T01:14:49;7.43;;;2.80;;
51248;SDS011;39642;47.556;18.728;2023-04-03T01:25:36;8.10;;;2.55;;
51248;SDS011;39642;47.556;18.728;2023-04-03T01:28:05;9.13;;;3.00;;
51248;SDS011;39642;47.556;18.728;2023-04-03T01:30:33;9.20;;;2.70;;
51248;SDS011;39642;47.556;18.728;2023-04-03T01:33:02;8.38;;;2.65;;
51248;SDS011;39642;47.556;18.728;2023-04-03T01:35:28;7.95;;;2.53;;
51248;SDS011;39642;47.556;18.728;2023-04-03T01:37:54;8.27;;;2.60;;
51248;SDS011;39642;47.556;18.728;2023-04-03T01:40:19;8.85;;;2.80;;
51248;SDS011;39642;47.556;18.728;2023-04-03T01:42:45;8.25;;;2.75;;
51248;SDS011;39642;47.556;18.728;2023-04-03T01:45:11;7.80;;;2.80;;
51248;SDS011;39642;47.556;18.728;2023-04-03T01:47:37;8.32;;;2.87;;
51248;SDS011;39642;47.556;18.728;2023-04-03T01:50:03;8.77;;;2.65;;
51248;SDS011;39642;47.556;18.728;2023-04-03T01:52:29;7.95;;;2.60;;
51248;SDS011;39642;47.556;18.728;2023-04-03T01:54:55;7.60;;;2.62;;
51248;SDS011;39642;47.556;18.728;2023-04-03T01:57:21;8.15;;;2.70;;
51248;SDS011;39642;47.556;18.728;2023-04-03T01:59:47;8.55;;;2.70;;
51248;SDS011;39642;47.556;18.728;2023-04-03T02:02:13;9.10;;;2.70;;
51248;SDS011;39642;47.556;18.728;2023-04-03T02:04:40;8.43;;;2.78;;
51248;SDS011;39642;47.556;18.728;2023-04-03T02:07:06;8.43;;;2.90;;
51248;SDS011;39642;47.556;18.728;2023-04-03T02:09:32;7.75;;;2.55;;
51248;SDS011;39642;47.556;18.728;2023-04-03T02:11:58;8.73;;;2.87;;
51248;SDS011;39642;47.556;18.728;2023-04-03T02:14:24;7.72;;;2.47;;
51248;SDS011;39642;47.556;18.728;2023-04-03T02:16:50;8.25;;;2.50;;
51248;SDS011;39642;47.556;18.728;2023-04-03T02:19:15;8.00;;;2.75;;
51248;SDS011;39642;47.556;18.728;2023-04-03T02:21:41;8.25;;;2.70;;
51248;SDS011;39642;47.556;18.728;2023-04-03T02:24:07;7.80;;;2.60;;
51248;SDS011;39642;47.556;18.728;2023-04-03T02:26:33;8.35;;;2.75;;
51248;SDS011;39642;47.556;18.728;2023-04-03T02:28:59;7.32;;;2.50;;
51248;SDS011;39642;47.556;18.728;2023-04-03T02:31:25;7.78;;;2.58;;
51248;SDS011;39642;47.556;18.728;2023-04-03T02:33:51;8.52;;;2.60;;
51248;SDS011;39642;47.556;18.728;2023-04-03T02:36:17;7.90;;;2.72;;
51248;SDS011;39642;47.556;18.728;2023-04-03T02:38:43;8.35;;;2.72;;
51248;SDS011;39642;47.556;18.728;2023-04-03T02:41:09;8.25;;;2.70;;
51248;SDS011;39642;47.556;18.728;2023-04-03T02:43:36;8.68;;;2.70;;
51248;SDS011;39642;47.556;18.728;2023-04-03T02:46:03;7.95;;;2.70;;
51248;SDS011;39642;47.556;18.728;2023-04-03T02:48:29;8.38;;;2.58;;
51248;SDS011;39642;47.556;18.728;2023-04-03T02:50:55;8.35;;;2.70;;
51248;SDS011;39642;47.556;18.728;2023-04-03T02:53:21;7.45;;;2.37;;
51248;SDS011;39642;47.556;18.728;2023-04-03T02:55:48;7.65;;;2.50;;
51248;SDS011;39642;47.556;18.728;2023-04-03T02:58:14;7.85;;;2.47;;
51248;SDS011;39642;47.556;18.728;2023-04-03T03:00:40;7.75;;;2.55;;
51248;SDS011;39642;47.556;18.728;2023-04-03T03:03:06;7.25;;;2.37;;
51248;SDS011;39642;47.556;18.728;2023-04-03T03:05:32;7.22;;;2.30;;
51248;SDS011;39642;47.556;18.728;2023-04-03T03:07:58;7.62;;;2.40;;
51248;SDS011;39642;47.556;18.728;2023-04-03T03:10:24;8.80;;;2.92;;
51248;SDS011;39642;47.556;18.728;2023-04-03T03:12:50;8.00;;;2.95;;
51248;SDS011;39642;47.556;18.728;2023-04-03T03:15:16;8.05;;;2.55;;
51248;SDS011;39642;47.556;18.728;2023-04-03T03:17:43;8.32;;;2.47;;
51248;SDS011;39642;47.556;18.728;2023-04-03T03:20:09;7.78;;;2.50;;
51248;SDS011;39642;47.556;18.728;2023-04-03T03:22:35;7.65;;;2.33;;
51248;SDS011;39642;47.556;18.728;2023-04-03T03:25:01;7.93;;;2.55;;
51248;SDS011;39642;47.556;18.728;2023-04-03T03:27:28;7.87;;;2.47;;
51248;SDS011;39642;47.556;18.728;2023-04-03T03:29:54;6.68;;;2.20;;
51248;SDS011;39642;47.556;18.728;2023-04-03T03:32:20;9.02;;;2.50;;
51248;SDS011;39642;47.556;18.728;2023-04-03T03:34:46;6.68;;;2.20;;
51248;SDS011;39642;47.556;18.728;2023-04-03T03:37:12;8.25;;;2.40;;
51248;SDS011;39642;47.556;18.728;2023-04-03T03:39:38;8.93;;;2.40;;
51248;SDS011;39642;47.556;18.728;2023-04-03T03:42:04;7.47;;;2.40;;
51248;SDS011;39642;47.556;18.728;2023-04-03T03:44:30;7.25;;;2.40;;
51248;SDS011;39642;47.556;18.728;2023-04-03T03:46:56;7.37;;;2.25;;
51248;SDS011;39642;47.556;18.728;2023-04-03T03:49:22;7.30;;;2.35;;
51248;SDS011;39642;47.556;18.728;2023-04-03T03:51:47;7.57;;;2.50;;
51248;SDS011;39642;47.556;18.728;2023-04-03T03:54:13;6.93;;;2.30;;
51248;SDS011;39642;47.556;18.728;2023-04-03T03:56:39;7.00;;;2.35;;
51248;SDS011;39642;47.556;18.728;2023-04-03T03:59:05;7.70;;;2.40;;
51248;SDS011;39642;47.556;18.728;2023-04-03T04:01:31;7.90;;;2.60;;
51248;SDS011;39642;47.556;18.728;2023-04-03T04:03:58;8.07;;;2.40;;
51248;SDS011;39642;47.556;18.728;2023-04-03T04:06:23;7.45;;;2.40;;
51248;SDS011;39642;47.556;18.728;2023-04-03T04:08:49;7.15;;;2.33;;
51248;SDS011;39642;47.556;18.728;2023-04-03T04:11:15;7.03;;;2.30;;
51248;SDS011;39642;47.556;18.728;2023-04-03T04:13:41;8.75;;;2.42;;
51248;SDS011;39642;47.556;18.728;2023-04-03T04:16:07;7.18;;;2.28;;
51248;SDS011;39642;47.556;18.728;2023-04-03T04:18:33;8.13;;;2.55;;
51248;SDS011;39642;47.556;18.728;2023-04-03T04:20:59;7.57;;;2.45;;
51248;SDS011;39642;47.556;18.728;2023-04-03T04:23:25;6.82;;;2.10;;
51248;SDS011;39642;47.556;18.728;2023-04-03T04:25:51;7.22;;;2.35;;
51248;SDS011;39642;47.556;18.728;2023-04-03T04:28:17;7.68;;;2.53;;
51248;SDS011;39642;47.556;18.728;2023-04-03T04:30:44;8.43;;;2.53;;
51248;SDS011;39642;47.556;18.728;2023-04-03T04:33:10;7.10;;;2.30;;
51248;SDS011;39642;47.556;18.728;2023-04-03T04:35:36;7.20;;;2.28;;
51248;SDS011;39642;47.556;18.728;2023-04-03T04:38:02;7.00;;;2.22;;
51248;SDS011;39642;47.556;18.728;2023-04-03T04:40:28;7.03;;;2.22;;
51248;SDS011;39642;47.556;18.728;2023-04-03T04:42:54;7.22;;;2.20;;
51248;SDS011;39642;47.556;18.728;2023-04-03T04:45:20;7.50;;;2.47;;
51248;SDS011;39642;47.556;18.728;2023-04-03T04:47:46;7.72;;;2.40;;
51248;SDS011;39642;47.556;18.728;2023-04-03T04:50:12;7.12;;;2.20;;
51248;SDS011;39642;47.556;18.728;2023-04-03T04:52:38;7.37;;;2.20;;
51248;SDS011;39642;47.556;18.728;2023-04-03T04:55:04;7.07;;;2.10;;
51248;SDS011;39642;47.556;18.728;2023-04-03T04:57:30;6.82;;;2.20;;
51248;SDS011;39642;47.556;18.728;2023-04-03T04:59:56;7.10;;;2.30;;
51248;SDS011;39642;47.556;18.728;2023-04-03T05:02:22;7.30;;;2.20;;
51248;SDS011;39642;47.556;18.728;2023-04-03T05:04:48;7.53;;;2.33;;
51248;SDS011;39642;47.556;18.728;2023-04-03T05:07:15;6.87;;;2.20;;
51248;SDS011;39642;47.556;18.728;2023-04-03T05:09:41;7.18;;;2.20;;
51248;SDS011;39642;47.556;18.728;2023-04-03T05:12:07;8.38;;;2.50;;
51248;SDS011;39642;47.556;18.728;2023-04-03T05:14:33;7.05;;;2.28;;
51248;SDS011;39642;47.556;18.728;2023-04-03T05:16:59;6.53;;;2.12;;
51248;SDS011;39642;47.556;18.728;2023-04-03T05:19:25;7.70;;;2.28;;
51248;SDS011;39642;47.556;18.728;2023-04-03T05:21:51;6.90;;;2.20;;
51248;SDS011;39642;47.556;18.728;2023-04-03T05:24:17;6.50;;;2.10;;
51248;SDS011;39642;47.556;18.728;2023-04-03T05:26:43;7.20;;;2.20;;
51248;SDS011;39642;47.556;18.728;2023-04-03T05:29:09;7.30;;;2.08;;
51248;SDS011;39642;47.556;18.728;2023-04-03T05:31:35;7.57;;;2.28;;
51248;SDS011;39642;47.556;18.728;2023-04-03T05:34:01;7.72;;;2.17;;
51248;SDS011;39642;47.556;18.728;2023-04-03T05:36:28;6.22;;;2.00;;
51248;SDS011;39642;47.556;18.728;2023-04-03T05:38:54;6.45;;;2.00;;
51248;SDS011;39642;47.556;18.728;2023-04-03T05:41:21;7.47;;;2.20;;
51248;SDS011;39642;47.556;18.728;2023-04-03T05:43:48;6.50;;;2.28;;
51248;SDS011;39642;47.556;18.728;2023-04-03T05:46:15;6.90;;;2.10;;
51248;SDS011;39642;47.556;18.728;2023-04-03T05:48:42;6.00;;;1.90;;
51248;SDS011;39642;47.556;18.728;2023-04-03T05:51:13;6.30;;;1.92;;
51248;SDS011;39642;47.556;18.728;2023-04-03T05:53:41;7.00;;;2.10;;
51248;SDS011;39642;47.556;18.728;2023-04-03T05:56:09;7.07;;;2.10;;
51248;SDS011;39642;47.556;18.728;2023-04-03T05:58:34;7.18;;;2.15;;
51248;SDS011;39642;47.556;18.728;2023-04-03T06:01:00;7.85;;;2.20;;
51248;SDS011;39642;47.556;18.728;2023-04-03T06:03:26;7.20;;;2.20;;
51248;SDS011;39642;47.556;18.728;2023-04-03T06:05:52;6.55;;;1.83;;
51248;SDS011;39642;47.556;18.728;2023-04-03T06:08:18;5.22;;;1.90;;
51248;SDS011;39642;47.556;18.728;2023-04-03T06:10:44;6.12;;;1.98;;
51248;SDS011;39642;47.556;18.728;2023-04-03T06:13:11;6.35;;;2.00;;
51248;SDS011;39642;47.556;18.728;2023-04-03T06:15:37;6.82;;;2.00;;
51248;SDS011;39642;47.556;18.728;2023-04-03T06:18:05;6.53;;;2.00;;
51248;SDS011;39642;47.556;18.728;2023-04-03T06:20:30;6.25;;;2.08;;
51248;SDS011;39642;47.556;18.728;2023-04-03T06:22:56;6.22;;;1.95;;
51248;SDS011;39642;47.556;18.728;2023-04-03T06:25:22;6.05;;;2.03;;
51248;SDS011;39642;47.556;18.728;2023-04-03T06:27:48;6.72;;;2.00;;
51248;SDS011;39642;47.556;18.728;2023-04-03T06:30:14;6.28;;;2.00;;
51248;SDS011;39642;47.556;18.728;2023-04-03T06:32:40;5.60;;;1.77;;
51248;SDS011;39642;47.556;18.728;2023-04-03T06:35:06;5.82;;;1.85;;
51248;SDS011;39642;47.556;18.728;2023-04-03T06:37:33;7.03;;;2.15;;
51248;SDS011;39642;47.556;18.728;2023-04-03T06:39:59;6.15;;;1.90;;
51248;SDS011;39642;47.556;18.728;2023-04-03T06:42:26;6.35;;;1.92;;
51248;SDS011;39642;47.556;18.728;2023-04-03T06:44:51;7.43;;;1.95;;
51248;SDS011;39642;47.556;18.728;2023-04-03T06:47:17;8.13;;;2.30;;
51248;SDS011;39642;47.556;18.728;2023-04-03T06:49:43;6.65;;;1.98;;
51248;SDS011;39642;47.556;18.728;2023-04-03T06:52:10;7.60;;;2.10;;
51248;SDS011;39642;47.556;18.728;2023-04-03T06:54:37;6.43;;;1.87;;
51248;SDS011;39642;47.556;18.728;2023-04-03T06:57:03;7.60;;;2.00;;
51248;SDS011;39642;47.556;18.728;2023-04-03T06:59:29;7.32;;;2.22;;
51248;SDS011;39642;47.556;18.728;2023-04-03T07:01:55;6.32;;;1.90;;
51248;SDS011;39642;47.556;18.728;2023-04-03T07:04:21;6.15;;;1.83;;
51248;SDS011;39642;47.556;18.728;2023-04-03T07:06:47;6.35;;;1.90;;
51248;SDS011;39642;47.556;18.728;2023-04-03T07:09:14;6.35;;;1.90;;
51248;SDS011;39642;47.556;18.728;2023-04-03T07:11:40;5.85;;;1.90;;
51248;SDS011;39642;47.556;18.728;2023-04-03T07:14:06;7.35;;;2.03;;
51248;SDS011;39642;47.556;18.728;2023-04-03T07:16:33;6.95;;;2.00;;
51248;SDS011;39642;47.556;18.728;2023-04-03T07:19:00;6.50;;;2.08;;
51248;SDS011;39642;47.556;18.728;2023-04-03T07:21:27;6.03;;;1.87;;
51248;SDS011;39642;47.556;18.728;2023-04-03T07:23:53;6.75;;;2.03;;
51248;SDS011;39642;47.556;18.728;2023-04-03T07:26:20;5.60;;;1.80;;
51248;SDS011;39642;47.556;18.728;2023-04-03T07:28:46;5.87;;;1.90;;
51248;SDS011;39642;47.556;18.728;2023-04-03T07:31:14;5.62;;;1.87;;
51248;SDS011;39642;47.556;18.728;2023-04-03T07:33:40;5.85;;;1.95;;
51248;SDS011;39642;47.556;18.728;2023-04-03T07:36:06;5.12;;;1.70;;
51248;SDS011;39642;47.556;18.728;2023-04-03T07:38:34;5.82;;;1.80;;
51248;SDS011;39642;47.556;18.728;2023-04-03T07:41:01;4.75;;;1.73;;
51248;SDS011;39642;47.556;18.728;2023-04-03T07:43:26;5.12;;;1.77;;
51248;SDS011;39642;47.556;18.728;2023-04-03T07:45:52;4.65;;;1.70;;
51248;SDS011;39642;47.556;18.728;2023-04-03T07:48:20;6.05;;;1.95;;
51248;SDS011;39642;47.556;18.728;2023-04-03T07:50:47;5.50;;;1.73;;
51248;SDS011;39642;47.556;18.728;2023-04-03T07:53:14;6.37;;;1.98;;
51248;SDS011;39642;47.556;18.728;2023-04-03T07:55:40;4.95;;;1.80;;
51248;SDS011;39642;47.556;18.728;2023-04-03T07:58:12;5.18;;;1.70;;
51248;SDS011;39642;47.556;18.728;2023-04-03T08:00:40;5.37;;;1.60;;
51248;SDS011;39642;47.556;18.728;2023-04-03T08:03:06;7.50;;;1.90;;
51248;SDS011;39642;47.556;18.728;2023-04-03T08:05:38;5.53;;;1.85;;
51248;SDS011;39642;47.556;18.728;2023-04-03T08:08:06;6.55;;;1.90;;
51248;SDS011;39642;47.556;18.728;2023-04-03T08:10:33;6.05;;;1.85;;
51248;SDS011;39642;47.556;18.728;2023-04-03T08:13:00;6.00;;;1.80;;
51248;SDS011;39642;47.556;18.728;2023-04-03T08:15:26;5.40;;;1.75;;
51248;SDS011;39642;47.556;18.728;2023-04-03T08:17:52;6.50;;;1.80;;
51248;SDS011;39642;47.556;18.728;2023-04-03T08:20:19;5.30;;;1.73;;
51248;SDS011;39642;47.556;18.728;2023-04-03T08:22:45;6.05;;;1.73;;
51248;SDS011;39642;47.556;18.728;2023-04-03T08:25:10;5.55;;;1.80;;
51248;SDS011;39642;47.556;18.728;2023-04-03T08:27:36;5.65;;;1.70;;
51248;SDS011;39642;47.556;18.728;2023-04-03T08:30:02;4.82;;;1.67;;
51248;SDS011;39642;47.556;18.728;2023-04-03T08:32:29;4.57;;;1.58;;
51248;SDS011;39642;47.556;18.728;2023-04-03T08:34:55;4.65;;;1.65;;
51248;SDS011;39642;47.556;18.728;2023-04-03T08:37:21;5.37;;;1.70;;
51248;SDS011;39642;47.556;18.728;2023-04-03T08:39:47;5.62;;;1.90;;
51248;SDS011;39642;47.556;18.728;2023-04-03T08:47:47;4.20;;;1.52;;
51248;SDS011;39642;47.556;18.728;2023-04-03T08:50:19;5.82;;;1.70;;
51248;SDS011;39642;47.556;18.728;2023-04-03T08:52:52;5.43;;;1.80;;
51248;SDS011;39642;47.556;18.728;2023-04-03T08:57:53;6.15;;;1.83;;
51248;SDS011;39642;47.556;18.728;2023-04-03T09:00:28;5.07;;;1.58;;
51248;SDS011;39642;47.556;18.728;2023-04-03T09:03:00;6.03;;;1.67;;
51248;SDS011;39642;47.556;18.728;2023-04-03T09:05:35;5.70;;;1.73;;
51248;SDS011;39642;47.556;18.728;2023-04-03T09:16:43;4.60;;;1.50;;
51248;SDS011;39642;47.556;18.728;2023-04-03T09:19:25;6.15;;;1.70;;
51248;SDS011;39642;47.556;18.728;2023-04-03T09:21:56;5.60;;;1.60;;
51248;SDS011;39642;47.556;18.728;2023-04-03T09:24:23;4.97;;;1.70;;
51248;SDS011;39642;47.556;18.728;2023-04-03T09:26:54;5.25;;;1.70;;
51248;SDS011;39642;47.556;18.728;2023-04-03T09:29:25;5.75;;;1.65;;
51248;SDS011;39642;47.556;18.728;2023-04-03T09:32:34;5.97;;;1.80;;
51248;SDS011;39642;47.556;18.728;2023-04-03T09:34:55;5.93;;;1.60;;
51248;SDS011;39642;47.556;18.728;2023-04-03T09:37:35;4.65;;;1.60;;
51248;SDS011;39642;47.556;18.728;2023-04-03T09:43:01;6.00;;;1.70;;
51248;SDS011;39642;47.556;18.728;2023-04-03T09:53:36;6.43;;;1.90;;
51248;SDS011;39642;47.556;18.728;2023-04-03T09:56:05;5.12;;;1.62;;
51248;SDS011;39642;47.556;18.728;2023-04-03T09:58:49;6.53;;;1.60;;
51248;SDS011;39642;47.556;18.728;2023-04-03T10:01:26;4.30;;;1.42;;
51248;SDS011;39642;47.556;18.728;2023-04-03T10:06:42;4.20;;;1.52;;
51248;SDS011;39642;47.556;18.728;2023-04-03T10:11:59;4.80;;;1.50;;
51248;SDS011;39642;47.556;18.728;2023-04-03T10:17:12;4.80;;;1.60;;
51248;SDS011;39642;47.556;18.728;2023-04-03T10:19:44;4.70;;;1.50;;
51248;SDS011;39642;47.556;18.728;2023-04-03T10:22:36;5.37;;;1.58;;
51248;SDS011;39642;47.556;18.728;2023-04-03T10:33:13;3.53;;;1.42;;
51248;SDS011;39642;47.556;18.728;2023-04-03T10:35:52;4.10;;;1.50;;
51248;SDS011;39642;47.556;18.728;2023-04-03T10:41:23;3.78;;;1.50;;
51248;SDS011;39642;47.556;18.728;2023-04-03T10:44:12;4.78;;;1.40;;
51248;SDS011;39642;47.556;18.728;2023-04-03T10:46:52;4.47;;;1.60;;
51248;SDS011;39642;47.556;18.728;2023-04-03T10:49:47;5.12;;;1.50;;
51248;SDS011;39642;47.556;18.728;2023-04-03T10:57:55;5.85;;;1.60;;
51248;SDS011;39642;47.556;18.728;2023-04-03T11:00:35;3.80;;;1.40;;
51248;SDS011;39642;47.556;18.728;2023-04-03T11:03:24;5.25;;;1.60;;
51248;SDS011;39642;47.556;18.728;2023-04-03T11:05:56;4.50;;;1.50;;
51248;SDS011;39642;47.556;18.728;2023-04-03T11:08:38;4.55;;;1.50;;
51248;SDS011;39642;47.556;18.728;2023-04-03T11:11:35;4.53;;;1.60;;
51248;SDS011;39642;47.556;18.728;2023-04-03T11:14:09;4.97;;;1.50;;
51248;SDS011;39642;47.556;18.728;2023-04-03T11:16:42;4.45;;;1.42;;
51248;SDS011;39642;47.556;18.728;2023-04-03T11:19:18;5.10;;;1.60;;
51248;SDS011;39642;47.556;18.728;2023-04-03T11:24:46;4.30;;;1.50;;
51248;SDS011;39642;47.556;18.728;2023-04-03T11:27:30;3.85;;;1.35;;
51248;SDS011;39642;47.556;18.728;2023-04-03T11:30:13;3.05;;;1.37;;
51248;SDS011;39642;47.556;18.728;2023-04-03T11:32:50;3.33;;;1.37;;
51248;SDS011;39642;47.556;18.728;2023-04-03T11:35:41;3.83;;;1.55;;
51248;SDS011;39642;47.556;18.728;2023-04-03T11:38:10;5.05;;;1.50;;
51248;SDS011;39642;47.556;18.728;2023-04-03T11:40:45;4.50;;;1.40;;
51248;SDS011;39642;47.556;18.728;2023-04-03T11:43:23;4.32;;;1.50;;
51248;SDS011;39642;47.556;18.728;2023-04-03T11:53:38;3.75;;;1.50;;
51248;SDS011;39642;47.556;18.728;2023-04-03T12:01:43;4.03;;;1.45;;
51248;SDS011;39642;47.556;18.728;2023-04-03T12:04:24;4.57;;;1.50;;
51248;SDS011;39642;47.556;18.728;2023-04-03T12:07:02;3.33;;;1.30;;
51248;SDS011;39642;47.556;18.728;2023-04-03T12:12:27;4.78;;;1.60;;
51248;SDS011;39642;47.556;18.728;2023-04-03T12:14:55;5.18;;;1.50;;
51248;SDS011;39642;47.556;18.728;2023-04-03T12:17:43;4.30;;;1.45;;
51248;SDS011;39642;47.556;18.728;2023-04-03T12:20:45;3.50;;;1.40;;
51248;SDS011;39642;47.556;18.728;2023-04-03T12:26:21;3.53;;;1.40;;
51248;SDS011;39642;47.556;18.728;2023-04-03T12:28:51;3.50;;;1.40;;
51248;SDS011;39642;47.556;18.728;2023-04-03T12:31:19;6.55;;;1.70;;
51248;SDS011;39642;47.556;18.728;2023-04-03T12:36:29;3.40;;;1.40;;
51248;SDS011;39642;47.556;18.728;2023-04-03T12:39:24;4.35;;;1.48;;
51248;SDS011;39642;47.556;18.728;2023-04-03T12:47:50;5.28;;;1.60;;
51248;SDS011;39642;47.556;18.728;2023-04-03T12:50:20;3.92;;;1.40;;
51248;SDS011;39642;47.556;18.728;2023-04-03T12:52:51;5.78;;;1.75;;
51248;SDS011;39642;47.556;18.728;2023-04-03T12:55:23;4.75;;;1.50;;
51248;SDS011;39642;47.556;18.728;2023-04-03T12:57:49;5.60;;;1.60;;
51248;SDS011;39642;47.556;18.728;2023-04-03T13:00:22;4.43;;;1.60;;
51248;SDS011;39642;47.556;18.728;2023-04-03T13:02:55;4.43;;;1.60;;
51248;SDS011;39642;47.556;18.728;2023-04-03T13:05:21;5.55;;;1.60;;
51248;SDS011;39642;47.556;18.728;2023-04-03T13:07:49;3.85;;;1.33;;
51248;SDS011;39642;47.556;18.728;2023-04-03T13:10:23;3.90;;;1.50;;
51248;SDS011;39642;47.556;18.728;2023-04-03T13:12:50;5.85;;;1.70;;
51248;SDS011;39642;47.556;18.728;2023-04-03T13:18:47;5.12;;;1.60;;
51248;SDS011;39642;47.556;18.728;2023-04-03T13:21:07;4.65;;;1.40;;
51248;SDS011;39642;47.556;18.728;2023-04-03T13:23:40;3.95;;;1.50;;
51248;SDS011;39642;47.556;18.728;2023-04-03T13:26:10;4.10;;;1.50;;
51248;SDS011;39642;47.556;18.728;2023-04-03T13:28:37;3.62;;;1.40;;
51248;SDS011;39642;47.556;18.728;2023-04-03T13:31:25;4.80;;;1.70;;
51248;SDS011;39642;47.556;18.728;2023-04-03T13:36:32;3.35;;;1.33;;
51248;SDS011;39642;47.556;18.728;2023-04-03T13:41:35;3.15;;;1.40;;
51248;SDS011;39642;47.556;18.728;2023-04-03T13:46:41;4.40;;;1.50;;
51248;SDS011;39642;47.556;18.728;2023-04-03T13:49:20;4.65;;;1.60;;
51248;SDS011;39642;47.556;18.728;2023-04-03T13:51:46;4.25;;;1.60;;
51248;SDS011;39642;47.556;18.728;2023-04-03T13:54:18;5.22;;;1.60;;
51248;SDS011;39642;47.556;18.728;2023-04-03T13:56:55;5.95;;;1.75;;
51248;SDS011;39642;47.556;18.728;2023-04-03T13:59:25;4.97;;;1.60;;
51248;SDS011;39642;47.556;18.728;2023-04-03T14:04:33;4.87;;;1.60;;
51248;SDS011;39642;47.556;18.728;2023-04-03T14:07:21;4.12;;;1.60;;
51248;SDS011;39642;47.556;18.728;2023-04-03T14:09:48;3.67;;;1.48;;
51248;SDS011;39642;47.556;18.728;2023-04-03T14:12:15;4.72;;;1.60;;
51248;SDS011;39642;47.556;18.728;2023-04-03T14:14:44;5.32;;;1.60;;
51248;SDS011;39642;47.556;18.728;2023-04-03T14:17:18;4.15;;;1.50;;
51248;SDS011;39642;47.556;18.728;2023-04-03T14:19:48;3.78;;;1.50;;
51248;SDS011;39642;47.556;18.728;2023-04-03T14:22:16;4.35;;;1.52;;
51248;SDS011;39642;47.556;18.728;2023-04-03T14:24:49;4.93;;;1.65;;
51248;SDS011;39642;47.556;18.728;2023-04-03T14:27:20;5.45;;;1.65;;
51248;SDS011;39642;47.556;18.728;2023-04-03T14:29:49;5.60;;;1.70;;
51248;SDS011;39642;47.556;18.728;2023-04-03T14:32:17;5.30;;;1.60;;
51248;SDS011;39642;47.556;18.728;2023-04-03T14:34:44;5.07;;;1.70;;
51248;SDS011;39642;47.556;18.728;2023-04-03T14:37:15;4.68;;;1.60;;
51248;SDS011;39642;47.556;18.728;2023-04-03T14:39:43;6.43;;;1.70;;
51248;SDS011;39642;47.556;18.728;2023-04-03T14:42:14;4.93;;;1.67;;
51248;SDS011;39642;47.556;18.728;2023-04-03T14:44:42;3.87;;;1.50;;
51248;SDS011;39642;47.556;18.728;2023-04-03T14:47:28;4.18;;;1.60;;
51248;SDS011;39642;47.556;18.728;2023-04-03T14:49:56;5.28;;;1.70;;
51248;SDS011;39642;47.556;18.728;2023-04-03T14:52:23;5.50;;;1.58;;
51248;SDS011;39642;47.556;18.728;2023-04-03T14:54:52;5.32;;;1.50;;
51248;SDS011;39642;47.556;18.728;2023-04-03T14:57:19;4.03;;;1.60;;
51248;SDS011;39642;47.556;18.728;2023-04-03T14:59:47;3.97;;;1.50;;
51248;SDS011;39642;47.556;18.728;2023-04-03T15:02:23;3.95;;;1.60;;
51248;SDS011;39642;47.556;18.728;2023-04-03T15:04:52;5.55;;;1.50;;
51248;SDS011;39642;47.556;18.728;2023-04-03T15:07:18;5.25;;;1.70;;
51248;SDS011;39642;47.556;18.728;2023-04-03T15:09:44;3.95;;;1.55;;
51248;SDS011;39642;47.556;18.728;2023-04-03T15:12:10;4.75;;;1.58;;
51248;SDS011;39642;47.556;18.728;2023-04-03T15:14:36;5.93;;;1.73;;
51248;SDS011;39642;47.556;18.728;2023-04-03T15:17:02;6.07;;;1.70;;
51248;SDS011;39642;47.556;18.728;2023-04-03T15:19:30;3.58;;;1.42;;
51248;SDS011;39642;47.556;18.728;2023-04-03T15:22:01;3.70;;;1.35;;
51248;SDS011;39642;47.556;18.728;2023-04-03T15:24:27;5.97;;;1.75;;
51248;SDS011;39642;47.556;18.728;2023-04-03T15:26:53;4.80;;;1.60;;
51248;SDS011;39642;47.556;18.728;2023-04-03T15:29:18;5.22;;;1.80;;
51248;SDS011;39642;47.556;18.728;2023-04-03T15:31:44;5.12;;;1.60;;
51248;SDS011;39642;47.556;18.728;2023-04-03T15:34:10;4.10;;;1.70;;
51248;SDS011;39642;47.556;18.728;2023-04-03T15:36:36;5.30;;;1.80;;
51248;SDS011;39642;47.556;18.728;2023-04-03T15:39:02;5.90;;;1.80;;
51248;SDS011;39642;47.556;18.728;2023-04-03T15:41:28;5.80;;;1.70;;
51248;SDS011;39642;47.556;18.728;2023-04-03T15:43:54;5.15;;;1.65;;
51248;SDS011;39642;47.556;18.728;2023-04-03T15:46:20;4.68;;;1.62;;
51248;SDS011;39642;47.556;18.728;2023-04-03T15:48:46;5.07;;;1.50;;
51248;SDS011;39642;47.556;18.728;2023-04-03T15:51:12;4.45;;;1.60;;
51248;SDS011;39642;47.556;18.728;2023-04-03T15:53:38;7.35;;;1.80;;
51248;SDS011;39642;47.556;18.728;2023-04-03T15:56:03;6.45;;;1.70;;
51248;SDS011;39642;47.556;18.728;2023-04-03T15:58:30;5.87;;;1.70;;
51248;SDS011;39642;47.556;18.728;2023-04-03T16:00:56;4.35;;;1.50;;
51248;SDS011;39642;47.556;18.728;2023-04-03T16:03:22;4.70;;;1.58;;
51248;SDS011;39642;47.556;18.728;2023-04-03T16:05:49;5.72;;;1.67;;
51248;SDS011;39642;47.556;18.728;2023-04-03T16:08:16;5.45;;;1.60;;
51248;SDS011;39642;47.556;18.728;2023-04-03T16:10:43;4.10;;;1.50;;
51248;SDS011;39642;47.556;18.728;2023-04-03T16:13:11;5.07;;;1.60;;
51248;SDS011;39642;47.556;18.728;2023-04-03T16:15:37;4.82;;;1.80;;
51248;SDS011;39642;47.556;18.728;2023-04-03T16:18:03;5.28;;;1.60;;
51248;SDS011;39642;47.556;18.728;2023-04-03T16:20:30;5.35;;;1.70;;
51248;SDS011;39642;47.556;18.728;2023-04-03T16:22:56;4.82;;;1.58;;
51248;SDS011;39642;47.556;18.728;2023-04-03T16:25:25;4.80;;;1.65;;
51248;SDS011;39642;47.556;18.728;2023-04-03T16:27:52;5.35;;;1.70;;
51248;SDS011;39642;47.556;18.728;2023-04-03T16:30:18;5.15;;;1.75;;